createdAt,value
2022-08-26T00:01:54.741Z,18.10
2022-08-26T00:04:25.229Z,18.10
2022-08-26T00:06:53.879Z,18.10
2022-08-26T00:09:22.152Z,18.10
2022-08-26T00:11:49.884Z,18.00
2022-08-26T00:14:17.682Z,18.00
2022-08-26T00:16:47.986Z,17.90
2022-08-26T00:19:18.490Z,17.90
2022-08-26T00:21:48.785Z,17.80
2022-08-26T00:24:19.351Z,17.80
2022-08-26T00:26:46.034Z,17.70
2022-08-26T00:29:13.388Z,17.70
2022-08-26T00:31:41.053Z,17.62
2022-08-26T00:34:11.143Z,17.60
2022-08-26T00:36:39.776Z,17.52
2022-08-26T00:39:08.289Z,17.50
2022-08-26T00:41:38.641Z,17.50
2022-08-26T00:44:06.602Z,17.40
2022-08-26T00:46:46.552Z,17.40
2022-08-26T00:49:26.813Z,17.40
2022-08-26T00:52:01.095Z,17.30
2022-08-26T00:54:34.435Z,17.30
2022-08-26T00:57:08.765Z,17.20
2022-08-26T00:59:48.314Z,17.10
2022-08-26T01:02:21.319Z,17.10
2022-08-26T01:04:55.528Z,17.10
2022-08-26T01:07:26.146Z,17.00
2022-08-26T01:09:53.158Z,17.00
2022-08-26T01:12:21.954Z,17.00
2022-08-26T01:14:50.010Z,17.00
2022-08-26T01:17:16.703Z,16.90
2022-08-26T01:19:50.980Z,16.90
2022-08-26T01:22:37.655Z,16.90
2022-08-26T01:25:05.010Z,16.80
2022-08-26T01:27:33.653Z,16.80
2022-08-26T01:30:02.346Z,16.72
2022-08-26T01:32:32.159Z,16.70
2022-08-26T01:34:59.501Z,16.70
2022-08-26T01:37:36.526Z,16.70
2022-08-26T01:40:09.335Z,16.70
2022-08-26T01:42:36.028Z,16.68
2022-08-26T01:45:26.363Z,16.60
2022-08-26T01:47:57.364Z,16.60
2022-08-26T01:50:32.832Z,16.60
2022-08-26T01:53:12.143Z,16.50
2022-08-26T01:55:44.082Z,16.50
2022-08-26T01:58:20.944Z,16.50
2022-08-26T02:00:48.340Z,16.50
2022-08-26T02:03:18.323Z,16.50
2022-08-26T02:05:59.308Z,16.50
2022-08-26T02:08:49.432Z,16.50
2022-08-26T02:11:18.441Z,16.40
2022-08-26T02:13:52.230Z,16.40
2022-08-26T02:16:28.652Z,16.40
2022-08-26T02:18:57.999Z,16.40
2022-08-26T02:21:25.151Z,16.36
2022-08-26T02:23:52.530Z,16.34
2022-08-26T02:26:26.954Z,16.32
2022-08-26T02:29:05.368Z,16.38
2022-08-26T02:31:34.152Z,16.32
2022-08-26T02:34:20.472Z,16.38
2022-08-26T02:36:47.156Z,16.30
2022-08-26T02:39:19.525Z,16.30
2022-08-26T02:41:48.891Z,16.30
2022-08-26T02:44:17.713Z,16.30
2022-08-26T02:46:46.860Z,16.30
2022-08-26T02:49:15.331Z,16.20
2022-08-26T02:51:43.757Z,16.20
2022-08-26T02:54:10.476Z,16.10
2022-08-26T02:56:37.428Z,16.10
2022-08-26T02:59:04.207Z,16.10
2022-08-26T03:01:36.033Z,16.20
2022-08-26T03:04:05.992Z,16.20
2022-08-26T03:06:33.793Z,16.20
2022-08-26T03:09:00.313Z,16.10
2022-08-26T03:11:32.272Z,16.10
2022-08-26T03:14:00.643Z,16.10
2022-08-26T03:16:38.132Z,16.10
2022-08-26T03:19:08.393Z,16.00
2022-08-26T03:21:39.142Z,16.02
2022-08-26T03:24:06.148Z,16.00
2022-08-26T03:26:32.856Z,16.00
2022-08-26T03:29:33.002Z,15.90
2022-08-26T03:32:01.263Z,15.82
2022-08-26T03:34:28.075Z,15.90
2022-08-26T03:36:54.689Z,15.90
2022-08-26T03:39:21.394Z,15.84
2022-08-26T03:41:48.149Z,15.70
2022-08-26T03:44:14.688Z,15.70
2022-08-26T03:46:41.318Z,15.78
2022-08-26T03:49:10.802Z,15.68
2022-08-26T03:51:39.438Z,15.60
2022-08-26T03:54:09.435Z,15.60
2022-08-26T03:56:36.684Z,15.50
2022-08-26T03:59:05.283Z,15.60
2022-08-26T04:01:34.732Z,15.60
2022-08-26T04:04:01.737Z,15.70
2022-08-26T04:06:35.814Z,15.80
2022-08-26T04:09:07.990Z,15.90
2022-08-26T04:11:37.806Z,15.90
2022-08-26T04:14:14.282Z,16.00
2022-08-26T04:16:45.909Z,16.00
2022-08-26T04:19:16.687Z,16.00
2022-08-26T04:21:45.113Z,16.00
2022-08-26T04:24:15.643Z,16.10
2022-08-26T04:26:43.997Z,16.10
2022-08-26T04:29:19.141Z,16.10
2022-08-26T04:31:48.236Z,16.20
2022-08-26T04:34:16.242Z,16.30
2022-08-26T04:36:44.528Z,16.40
2022-08-26T04:39:16.573Z,16.38
2022-08-26T04:41:45.296Z,16.30
2022-08-26T04:44:11.850Z,16.40
2022-08-26T04:46:39.862Z,16.50
2022-08-26T04:49:10.800Z,16.70
2022-08-26T04:51:39.237Z,16.70
2022-08-26T04:54:07.247Z,16.80
2022-08-26T04:56:41.603Z,16.90
2022-08-26T04:59:17.102Z,17.00
2022-08-26T05:01:51.782Z,17.00
2022-08-26T05:04:20.887Z,17.00
2022-08-26T05:06:49.344Z,17.10
2022-08-26T05:09:18.737Z,17.20
2022-08-26T05:11:48.570Z,17.20
2022-08-26T05:14:21.015Z,17.30
2022-08-26T05:16:49.331Z,17.48
2022-08-26T05:19:17.234Z,17.60
2022-08-26T05:21:47.179Z,17.74
2022-08-26T05:24:14.342Z,17.80
2022-08-26T05:26:41.325Z,17.90
2022-08-26T05:29:07.938Z,18.02
2022-08-26T05:31:35.672Z,18.10
2022-08-26T05:34:04.707Z,18.20
2022-08-26T05:36:35.211Z,18.32
2022-08-26T05:39:07.420Z,18.50
2022-08-26T05:41:38.638Z,18.60
2022-08-26T05:44:10.177Z,18.70
2022-08-26T05:46:38.673Z,18.80
2022-08-26T05:49:12.263Z,18.94
2022-08-26T05:51:40.843Z,19.10
2022-08-26T05:54:07.473Z,19.20
2022-08-26T05:56:38.055Z,19.30
2022-08-26T05:59:05.766Z,19.44
2022-08-26T06:01:37.447Z,19.60
2022-08-26T06:04:04.209Z,19.76
2022-08-26T06:06:36.138Z,19.90
2022-08-26T06:09:06.415Z,20.00
2022-08-26T06:11:36.755Z,20.20
2022-08-26T06:14:06.368Z,20.30
2022-08-26T06:16:38.666Z,20.40
2022-08-26T06:19:11.300Z,20.50
2022-08-26T06:21:41.516Z,20.60
2022-08-26T06:24:31.340Z,20.70
2022-08-26T06:27:05.605Z,20.82
2022-08-26T06:29:36.155Z,20.90
2022-08-26T06:32:04.870Z,21.00
2022-08-26T06:34:32.717Z,21.16
2022-08-26T06:37:06.439Z,21.28
2022-08-26T06:39:33.337Z,21.30
2022-08-26T06:42:00.470Z,21.40
2022-08-26T06:44:28.010Z,21.50
2022-08-26T06:46:54.935Z,21.60
2022-08-26T06:49:26.567Z,21.80
2022-08-26T06:51:54.720Z,21.90
2022-08-26T06:54:22.019Z,22.00
2022-08-26T06:56:48.677Z,22.10
2022-08-26T06:59:16.375Z,22.30
2022-08-26T07:01:47.209Z,22.30
2022-08-26T07:04:20.332Z,22.42
2022-08-26T07:06:52.679Z,22.60
2022-08-26T07:09:23.530Z,22.70
2022-08-26T07:11:51.380Z,22.80
2022-08-26T07:14:19.318Z,22.90
2022-08-26T07:16:49.866Z,23.00
2022-08-26T07:19:30.195Z,23.10
2022-08-26T07:22:02.257Z,23.20
2022-08-26T07:24:31.156Z,23.30
2022-08-26T07:27:02.775Z,23.46
2022-08-26T07:29:30.643Z,23.60
2022-08-26T07:31:58.362Z,23.70
2022-08-26T07:34:25.498Z,23.80
2022-08-26T07:36:53.316Z,23.90
2022-08-26T07:39:21.765Z,24.10
2022-08-26T07:41:48.309Z,24.20
2022-08-26T07:44:15.651Z,24.30
2022-08-26T07:46:44.098Z,24.40
2022-08-26T07:49:12.214Z,24.50
2022-08-26T07:51:39.747Z,24.60
2022-08-26T07:54:07.599Z,24.70
2022-08-26T07:56:34.933Z,24.80
2022-08-26T07:59:04.137Z,24.90
2022-08-26T08:01:41.224Z,24.90
2022-08-26T08:04:13.886Z,24.90
2022-08-26T08:06:44.027Z,25.00
2022-08-26T08:09:13.275Z,25.10
2022-08-26T08:11:40.525Z,25.10
2022-08-26T08:14:08.809Z,25.10
2022-08-26T08:16:41.900Z,25.20
2022-08-26T08:19:13.519Z,25.30
2022-08-26T08:21:42.181Z,25.40
2022-08-26T08:24:11.159Z,25.50
2022-08-26T08:26:38.634Z,25.60
2022-08-26T08:29:08.353Z,25.70
2022-08-26T08:31:56.432Z,25.80
2022-08-26T08:34:24.752Z,25.86
2022-08-26T08:36:53.844Z,25.92
2022-08-26T08:39:22.007Z,26.00
2022-08-26T08:42:23.531Z,26.20
2022-08-26T08:44:55.848Z,26.30
2022-08-26T08:47:43.075Z,26.34
2022-08-26T08:50:15.704Z,26.42
2022-08-26T13:03:52.639Z,31.06
2022-08-26T13:09:23.753Z,31.32
2022-08-26T13:11:52.213Z,31.50
2022-08-26T13:14:42.697Z,31.60
2022-08-26T13:17:08.728Z,31.80
2022-08-26T13:19:35.171Z,31.90
2022-08-26T13:22:01.160Z,32.00
2022-08-26T13:24:56.713Z,32.10
2022-08-26T13:27:25.637Z,32.10
2022-08-26T13:29:53.213Z,31.98
2022-08-26T13:32:21.857Z,31.90
2022-08-26T13:35:05.888Z,31.80
2022-08-26T13:37:34.955Z,31.80
2022-08-26T13:40:05.010Z,31.80
2022-08-26T13:42:49.417Z,31.90
2022-08-26T13:45:15.827Z,32.00
2022-08-26T13:47:41.793Z,32.00
2022-08-26T13:50:08.480Z,32.10
2022-08-26T13:52:36.845Z,32.10
2022-08-26T13:55:10.981Z,32.10
2022-08-26T13:57:37.796Z,31.90
2022-08-26T14:00:05.338Z,31.90
2022-08-26T14:02:31.456Z,31.90
2022-08-26T14:04:57.432Z,31.90
2022-08-26T14:07:48.617Z,31.90
2022-08-26T14:10:14.659Z,31.90
2022-08-26T14:12:40.596Z,31.90
2022-08-26T14:15:08.324Z,31.90
2022-08-26T14:17:48.322Z,31.90
2022-08-26T14:20:28.452Z,31.90
2022-08-26T14:23:20.725Z,31.92
2022-08-26T14:25:42.654Z,32.00
2022-08-26T14:28:08.557Z,32.10
2022-08-26T14:30:36.193Z,31.94
2022-08-26T14:33:02.216Z,31.80
2022-08-26T14:36:18.196Z,31.80
2022-08-26T14:38:45.981Z,32.00
2022-08-26T14:41:16.953Z,32.10
2022-08-26T14:43:53.958Z,32.20
2022-08-26T14:46:20.048Z,32.30
2022-08-26T14:48:46.068Z,32.30
2022-08-26T14:51:12.203Z,32.20
2022-08-26T14:53:57.211Z,32.20
2022-08-26T14:56:23.940Z,32.30
2022-08-26T14:58:49.835Z,32.30
2022-08-26T15:01:15.876Z,32.32
2022-08-26T15:04:06.486Z,32.40
2022-08-26T15:06:34.170Z,32.36
2022-08-26T15:09:00.091Z,32.40
2022-08-26T15:11:26.459Z,32.50
2022-08-26T15:14:01.729Z,32.50
2022-08-26T15:16:31.472Z,32.50
2022-08-26T15:19:00.485Z,32.50
2022-08-26T15:21:26.395Z,32.30
2022-08-26T15:26:44.061Z,32.00
2022-08-26T15:29:10.015Z,31.94
2022-08-26T15:31:36.154Z,31.90
2022-08-26T15:34:16.331Z,31.90
2022-08-26T15:36:45.229Z,31.80
2022-08-26T15:39:13.185Z,31.90
2022-08-26T15:41:40.425Z,31.84
2022-08-26T15:44:07.815Z,31.80
2022-08-26T15:46:38.777Z,31.86
2022-08-26T15:49:09.234Z,31.80
2022-08-26T15:51:45.323Z,31.80
2022-08-26T15:54:15.941Z,31.80
2022-08-26T15:56:45.424Z,31.70
2022-08-26T15:59:18.836Z,31.70
2022-08-26T16:01:45.215Z,31.70
2022-08-26T16:04:11.745Z,31.70
2022-08-26T16:06:39.976Z,31.70
2022-08-26T16:09:10.179Z,31.70
2022-08-26T16:11:38.059Z,31.68
2022-08-26T16:14:05.746Z,31.60
2022-08-26T16:16:31.721Z,31.60
2022-08-26T16:18:58.092Z,31.50
2022-08-26T16:21:30.279Z,31.42
2022-08-26T16:23:57.651Z,31.40
2022-08-26T16:26:28.606Z,31.40
2022-08-26T16:28:54.893Z,31.30
2022-08-26T16:31:21.566Z,31.22
2022-08-26T16:33:53.581Z,31.20
2022-08-26T16:36:19.960Z,31.10
2022-08-26T16:38:52.621Z,31.02
2022-08-26T16:41:18.863Z,31.00
2022-08-26T16:43:45.284Z,30.90
2022-08-26T16:46:17.177Z,30.84
2022-08-26T16:48:44.977Z,30.80
2022-08-26T16:51:18.564Z,30.70
2022-08-26T16:53:45.514Z,30.60
2022-08-26T17:07:48.771Z,29.04
2022-08-26T17:10:15.607Z,29.00
2022-08-26T17:12:42.494Z,28.90
2022-08-26T17:15:10.871Z,28.80
2022-08-26T17:17:37.599Z,28.60
2022-08-26T17:20:11.060Z,28.40
2022-08-26T17:22:41.172Z,28.20
2022-08-26T17:25:31.787Z,27.90
2022-08-26T17:27:59.327Z,27.60
2022-08-26T17:30:26.334Z,27.36
2022-08-26T17:32:54.558Z,27.04
2022-08-26T17:35:22.332Z,26.78
2022-08-26T17:37:49.286Z,26.50
2022-08-26T17:40:21.594Z,26.30
2022-08-26T17:42:48.919Z,26.02
2022-08-26T17:45:16.410Z,25.80
2022-08-26T17:47:44.575Z,25.60
2022-08-26T17:50:15.474Z,25.40
2022-08-26T17:52:42.619Z,25.20
2022-08-26T17:55:12.871Z,25.00
2022-08-26T17:57:40.844Z,24.88
2022-08-26T18:00:18.979Z,24.70
2022-08-26T18:02:45.592Z,24.50
2022-08-26T18:05:17.419Z,24.40
2022-08-26T18:07:44.923Z,24.20
2022-08-26T18:10:16.473Z,24.10
2022-08-26T18:12:43.380Z,24.00
2022-08-26T18:15:12.191Z,23.90
2022-08-26T18:17:39.367Z,23.78
2022-08-26T18:20:15.212Z,23.66
2022-08-26T18:22:42.887Z,23.60
2022-08-26T18:25:10.912Z,23.50
2022-08-26T18:27:38.343Z,23.40
2022-08-26T18:30:16.654Z,23.30
2022-08-26T18:32:44.297Z,23.20
2022-08-26T18:35:11.883Z,23.10
2022-08-26T18:37:38.942Z,23.00
2022-08-26T18:40:09.600Z,22.90
2022-08-26T18:42:37.290Z,22.80
2022-08-26T18:45:06.546Z,22.70
2022-08-26T18:47:33.579Z,22.60
2022-08-26T18:50:03.666Z,22.52
2022-08-26T18:52:31.671Z,22.50
2022-08-26T18:54:59.526Z,22.42
2022-08-26T18:57:26.074Z,22.40
2022-08-26T18:59:52.623Z,22.30
2022-08-26T19:02:19.333Z,22.30
2022-08-26T19:04:45.865Z,22.20
2022-08-26T19:07:12.388Z,22.10
2022-08-26T19:09:38.913Z,22.04
2022-08-26T19:12:05.813Z,22.00
2022-08-26T19:14:34.992Z,21.90
2022-08-26T19:17:02.516Z,21.80
2022-08-26T19:19:29.549Z,21.76
2022-08-26T19:21:56.508Z,21.70
2022-08-26T19:24:25.983Z,21.62
2022-08-26T19:27:00.233Z,21.60
2022-08-26T19:29:34.356Z,21.50
2022-08-26T19:32:02.893Z,21.50
2022-08-26T19:34:29.549Z,21.48
2022-08-26T19:36:58.239Z,21.40
2022-08-26T19:39:26.162Z,21.40
2022-08-26T19:41:53.533Z,21.34
2022-08-26T19:44:41.693Z,21.30
2022-08-26T19:47:10.756Z,21.30
2022-08-26T19:49:38.479Z,21.30
2022-08-26T19:52:06.048Z,21.30
2022-08-26T19:54:35.157Z,21.20
2022-08-26T19:57:02.036Z,21.20
2022-08-26T19:59:29.224Z,21.20
2022-08-26T20:02:01.433Z,21.20
2022-08-26T20:04:32.763Z,21.20
2022-08-26T20:07:01.924Z,21.20
2022-08-26T20:09:31.142Z,21.14
2022-08-26T20:11:57.883Z,21.10
2022-08-26T20:14:26.573Z,21.08
2022-08-26T20:16:54.050Z,21.00
2022-08-26T20:59:52.690Z,18.80
2022-08-26T21:02:19.289Z,18.88
2022-08-26T21:04:46.035Z,19.00
2022-08-26T21:07:12.793Z,19.20
2022-08-26T21:09:39.361Z,19.40
2022-08-26T21:12:06.443Z,19.50
2022-08-26T21:14:33.082Z,19.64
2022-08-26T21:16:59.752Z,19.70
2022-08-26T21:19:26.709Z,19.80
2022-08-26T21:21:53.467Z,19.88
2022-08-26T21:24:20.276Z,19.90
2022-08-26T21:26:47.825Z,19.90
2022-08-26T21:29:14.993Z,19.90
2022-08-26T21:31:46.568Z,19.90
2022-08-26T21:34:16.325Z,19.90
2022-08-26T21:36:43.842Z,19.90
2022-08-26T21:39:11.966Z,19.90
2022-08-26T21:41:39.784Z,19.88
2022-08-26T21:44:06.728Z,19.86
2022-08-26T21:46:34.526Z,19.80
2022-08-26T21:49:05.146Z,19.80
2022-08-26T21:51:36.223Z,19.80
2022-08-26T21:54:10.575Z,19.80
2022-08-26T21:56:44.236Z,19.70
2022-08-26T21:59:12.295Z,19.70
2022-08-26T22:01:39.067Z,19.66
2022-08-26T22:04:08.788Z,19.60
2022-08-26T22:06:46.581Z,19.60
2022-08-26T22:09:16.814Z,19.60
2022-08-26T22:11:43.525Z,19.60
2022-08-26T22:14:11.592Z,19.60
2022-08-26T22:16:38.431Z,19.50
2022-08-26T22:19:05.680Z,19.50
2022-08-26T22:21:34.176Z,19.40
2022-08-26T22:24:00.756Z,19.30
2022-08-26T22:26:34.585Z,19.26
2022-08-26T22:29:04.844Z,19.20
2022-08-26T22:31:37.826Z,19.20
2022-08-26T22:34:15.696Z,19.10
2022-08-26T22:36:46.600Z,19.10
2022-08-26T22:39:17.422Z,19.08
2022-08-26T22:41:46.192Z,19.00
2022-08-26T22:44:12.836Z,18.90
2022-08-26T22:46:40.577Z,18.90
2022-08-26T22:49:10.262Z,18.84
2022-08-26T22:51:37.009Z,18.80
2022-08-26T22:54:04.755Z,18.80
2022-08-26T22:56:31.347Z,18.80
2022-08-26T22:58:57.950Z,18.80
2022-08-26T23:01:24.536Z,18.80
2022-08-26T23:03:51.148Z,18.80
2022-08-26T23:06:17.697Z,18.80
2022-08-26T23:08:46.348Z,18.80
2022-08-26T23:11:14.966Z,18.78
2022-08-26T23:13:42.432Z,18.80
2022-08-26T23:16:12.998Z,18.80
2022-08-26T23:18:41.593Z,18.80
2022-08-26T23:21:10.212Z,18.80
2022-08-26T23:23:38.343Z,18.72
2022-08-26T23:26:07.777Z,18.70
2022-08-26T23:28:36.551Z,18.70
2022-08-26T23:31:03.208Z,18.70
2022-08-26T23:33:49.764Z,18.62
2022-08-26T23:36:18.401Z,18.60
2022-08-26T23:38:53.117Z,18.60
2022-08-26T23:41:22.741Z,18.60
2022-08-26T23:43:50.550Z,18.60
2022-08-26T23:46:18.750Z,18.58
2022-08-26T23:48:45.700Z,18.54
2022-08-26T23:51:38.903Z,18.50
2022-08-26T23:54:05.495Z,18.50
2022-08-26T23:56:34.915Z,18.40
2022-08-26T23:59:01.536Z,18.40
